Terminal Aerodrome Forecast
Issued by NWS

Home | Current Version | Previous Version | Text Only | Print | Product List | Glossary On
Versions: 1 2 3 4 5 6 7 8 9 10 11 12
764
FTUS45 KGGW 251720
TAFSDY
TAF
KSDY 251720Z 2518/2618 23017KT P6SM FEW230
     FM252100 27016G24KT P6SM SCT210
     FM252200 30017KT P6SM BKN210
     FM260000 33018G27KT P6SM VCSH BKN080
     FM260300 35016G24KT P6SM BKN060
     FM261000 32008KT P6SM FEW130=

USA.gov is the U.S. government's official web portal to all federal, state and local government web resources and services.